This is the latest recevied weather packets stored in our database for station/object K4VEB. If no packets are shown the sender has not sent any weather packets the latest 10 day(s).
| Time | Temp. | Humidity | Pressure | Rain* | Wind** | Luminosity | Snow |
|---|---|---|---|---|---|---|---|
| 1777412296 | 29.44° C | 54% | 1017.2 hPa | 0 mm | - | 92 W/m² | - |
| 1777411992 | 30° C | 52% | 1017.1 hPa | 0 mm | - | 121 W/m² | - |
| 1777411691 | 29.44° C | 52% | 1017 hPa | 0 mm | - | 453 W/m² | - |
| 1777411386 | 29.44° C | 53% | 1017.2 hPa | 0 mm | - | 359 W/m² | - |
| 1777411086 | 28.89° C | 54% | 1017.3 hPa | 0 mm | - | 389 W/m² | - |
| 1777410781 | 29.44° C | 54% | 1017.4 hPa | 0 mm | - | 124 W/m² | - |
| 1777410479 | 30° C | 50% | 1017.4 hPa | 0 mm | - | 128 W/m² | - |
| 1777410178 | 30° C | 50% | 1017.3 hPa | 0 mm | - | 381 W/m² | - |
| 1777409874 | 30° C | 50% | 1017.3 hPa | 0 mm | - | 172 W/m² | - |
| 1777409570 | 30.56° C | 49% | 1017.4 hPa | 0 mm | - | 158 W/m² | - |
| 1777409265 | 29.44° C | 53% | 1017.4 hPa | 0 mm | - | 584 W/m² | - |
| 1777408961 | 28.89° C | 54% | 1017.6 hPa | 0 mm | - | 174 W/m² | - |
| 1777408658 | 28.89° C | 54% | 1017.7 hPa | 0 mm | - | 123 W/m² | - |
| 1777408354 | 28.89° C | 54% | 1017.8 hPa | 0 mm | - | 110 W/m² | - |
| 1777408053 | 29.44° C | 53% | 1017.8 hPa | 0 mm | - | 119 W/m² | - |
| 1777407750 | 29.44° C | 53% | 1017.7 hPa | 0 mm | - | 112 W/m² | - |
| 1777407445 | 30° C | 52% | 1017.9 hPa | 0 mm | - | 128 W/m² | - |
| 1777407141 | 30.56° C | 51% | 1018.1 hPa | 0 mm | - | 156 W/m² | - |
| 1777406836 | 30° C | 50% | 1018.1 hPa | 0 mm | - | 736 W/m² | - |
| 1777406531 | 30.56° C | 50% | 1017.9 hPa | 0 mm | - | 210 W/m² | - |
| 1777406227 | 30.56° C | 51% | 1018.3 hPa | 0 mm | - | 762 W/m² | - |
| 1777405927 | 30° C | 50% | 1018.3 hPa | 0 mm | - | 755 W/m² | - |
| 1777405623 | 30.56° C | 50% | 1018.4 hPa | 0 mm | - | 202 W/m² | - |
| 1777405321 | 31.11° C | 49% | 1018.4 hPa | 0 mm | - | 226 W/m² | - |
| 1777405021 | 30.56° C | 50% | 1018.4 hPa | 0 mm | - | 811 W/m² | - |
* Rain latest hour (hover to see other rain measurements)
** Current wind speed in m/s (hover to see current wind gust speed)